»·PEaware :: GFOTO KOSH-KOSH

GFOTO :: KOSH-KOSH

FLIGHT INFORMATION

Flight Status: Arrived
Operator: Unknown
More flights by this operator :: More flights under this callsign
Pilot: Kevin L. (35572)
Aircraft: Cub Crafters X Cub
(CC19)
More flights by this aircraft type
Origin: KOSH Wittman Regl
United States
Destination: KOSH Wittman Regl
United States
More flights between these airports :: More routes between these airports
Route: WI46 13WI
File this flight plan on PilotEdge
Remarks:
Altitude:
(Current/Filed)
1,800ft
Speed:
(Current/Filed)
130kts
Departed: 18-Jul-21 12:47 PM
Arrived: 18-Jul-21 01:23 PM
Distance/Time
Traveled:
0nm/0:35
Distance/Time
To Go:
Arrived

Flight Plot

Page will automatically refresh every two minutes.

Flight plan parsing failed; only flown route is shown


Map Options




Map Legend


Flown Route
Filed Route
Departure Airport
Arrival Airport
Navaid (VOR, NDB)
Fix

Horizontal Profiles

Position Reports

Time Latitude Longitude Heading Altitude Ground
Speed
18-Jul-21 12:36 43.981827 -88.558313 189 790ft 0kts
18-Jul-21 12:37 43.981827 -88.558313 189 790ft 0kts
18-Jul-21 12:38 43.981827 -88.558313 189 790ft 0kts
18-Jul-21 12:39 43.981827 -88.558313 189 790ft 0kts
18-Jul-21 12:40 43.981257 -88.558197 170 790ft 6kts
18-Jul-21 12:41 43.978058 -88.558079 181 795ft 10kts
18-Jul-21 12:42 43.975907 -88.558093 179 796ft 7kts
18-Jul-21 12:43 43.972186 -88.558142 181 794ft 11kts
18-Jul-21 12:44 43.969425 -88.558186 180 788ft 10kts
18-Jul-21 12:45 43.967500 -88.557786 89 790ft 6kts
18-Jul-21 12:46 43.964672 -88.544853 159 1196ft 126kts
18-Jul-21 12:47 43.933707 -88.519508 144 1161ft 125kts
18-Jul-21 12:48 43.904136 -88.499956 216 1286ft 123kts
18-Jul-21 12:49 43.882077 -88.533086 238 1710ft 116kts
18-Jul-21 12:50 43.864668 -88.572821 240 1793ft 122kts
18-Jul-21 12:51 43.847218 -88.613486 240 1800ft 123kts
18-Jul-21 12:52 43.840306 -88.629631 240 1802ft 123kts
18-Jul-21 12:53 43.823634 -88.668656 240 1800ft 123kts
18-Jul-21 12:54 43.806114 -88.709762 240 1799ft 123kts
18-Jul-21 12:55 43.788664 -88.750727 240 1801ft 124kts
18-Jul-21 12:56 43.771804 -88.792334 243 1801ft 124kts
18-Jul-21 12:57 43.762991 -88.815709 243 1800ft 124kts
18-Jul-21 12:58 43.762991 -88.815709 243 1800ft 124kts
18-Jul-21 12:59 43.762991 -88.815709 243 1800ft 124kts
18-Jul-21 13:00 43.762991 -88.815709 243 1800ft 124kts
18-Jul-21 13:01 43.747424 -88.857508 243 1800ft 124kts
18-Jul-21 13:02 43.731569 -88.899992 243 1799ft 123kts
18-Jul-21 13:03 43.723211 -88.942199 307 1798ft 122kts
18-Jul-21 13:04 43.734428 -88.986680 286 1799ft 123kts
18-Jul-21 13:05 43.749831 -89.026303 336 1801ft 125kts
18-Jul-21 13:06 43.773755 -89.024099 52 1801ft 99kts
18-Jul-21 13:07 43.791530 -88.989841 53 1797ft 105kts
18-Jul-21 13:08 43.805485 -88.955753 63 1798ft 100kts
18-Jul-21 13:09 43.817659 -88.920852 63 1800ft 101kts
18-Jul-21 13:10 43.829402 -88.887348 60 1798ft 101kts
18-Jul-21 13:11 43.842347 -88.852946 62 1799ft 100kts
18-Jul-21 13:12 43.856608 -88.819560 49 1799ft 100kts
18-Jul-21 13:13 43.873891 -88.789228 53 1802ft 100kts
18-Jul-21 13:14 43.890981 -88.758750 44 1800ft 100kts
18-Jul-21 13:15 43.910873 -88.731797 40 1797ft 99kts
18-Jul-21 13:16 43.931954 -88.706761 38 1798ft 99kts
18-Jul-21 13:17 43.952331 -88.680600 75 1537ft 108kts
18-Jul-21 13:18 43.954409 -88.643984 90 1785ft 111kts
18-Jul-21 13:19 43.953440 -88.600951 89 1785ft 89kts
18-Jul-21 13:20 43.951096 -88.563810 103 1612ft 91kts
18-Jul-21 13:21 43.972623 -88.554525 358 841ft 77kts
18-Jul-21 13:22 43.985456 -88.554329 358 795ft 23kts
18-Jul-21 13:23 43.987101 -88.557721 221 785ft 19kts
18-Jul-21 13:24 43.982967 -88.558339 203 789ft 4kts
18-Jul-21 13:25 43.982891 -88.558382 183 789ft 0kts
18-Jul-21 13:26 43.982891 -88.558382 183 789ft 0kts
18-Jul-21 13:27 43.982891 -88.558382 183 789ft 0kts
18-Jul-21 13:28 43.982891 -88.558382 183 789ft 0kts
18-Jul-21 13:29 43.982891 -88.558382 183 789ft 0kts
18-Jul-21 13:30 43.982891 -88.558382 183 789ft 0kts
18-Jul-21 13:31 43.982891 -88.558382 183 789ft 0kts
18-Jul-21 13:32 43.982891 -88.558382 183 789ft 0kts
18-Jul-21 13:33 43.982891 -88.558382 183 789ft 0kts
18-Jul-21 13:34 43.982891 -88.558382 183 789ft 0kts
18-Jul-21 13:35 43.982891 -88.558382 183 789ft 0kts
18-Jul-21 13:36 43.982891 -88.558382 183 789ft 0kts

Navigation Log

Ident Type
Flight plan parsing failed, navigation log unavailable